Carpathia — WBC2454 — position and weather

sailwx.info

Track history (hours):
 
Tides and Currents Weather Stations Pressure Air Temp Water Temp Dewpoint Dewpoint Depression Visibility Wind Speed Wind Dir Waves Ship Positions

Carpathia

Owner: BRUSTOWICZ, THEODORE R, COVINGTON, LA. More information available from US FCC via Universal Licensing System and Coast Guard Vessel Documentation Center.

Last reported at 2015-Jan-22 06:22 UTC. Time now 2015-Jan-26 04:23 UTC.
Position N 29°46' W 091°45'.

Length 23 m; draft 4 m.

Type: Towing. MMSI: 366993420.

Date/timePositionNaut miles runAvg speedWind from/ knotsBaromVisibWave heightAir tempDewpointWater temp
2015-Jan-22 06:22N 29°46' W 091°45'5 4.8
2015-Jan-22 05:24N 29°46' W 091°39'4 4.9
2015-Jan-22 04:33N 29°45' W 091°34'5 5.2
2015-Jan-22 03:33N 29°42' W 091°30'5 5.1
2015-Jan-22 02:33N 29°39' W 091°25'5 5.4
2015-Jan-22 01:34N 29°39' W 091°18'6 5.7
2015-Jan-22 00:33N 29°42' W 091°13'5 5.0
2015-Jan-21 23:33N 29°46' W 091°16'5 6.4
2015-Jan-21 22:50N 29°47' W 091°21'0 6.8
2015-Jan-21 22:46N 29°47' W 091°21'2 7.0
2015-Jan-21 22:33N 29°48' W 091°22'7 6.9
2015-Jan-21 21:30N 29°54' W 091°27'2 0.0
2015-Jan-20 03:11N 29°56' W 091°28'3 4.2
2015-Jan-20 02:27N 29°53' W 091°26'3 3.8
2015-Jan-20 01:33N 29°50' W 091°24'4 4.0
2015-Jan-20 00:33N 29°47' W 091°21'4 3.6
2015-Jan-19 23:34N 29°46' W 091°18'4 3.4
2015-Jan-19 22:29N 29°45' W 091°14'4 4.2
2015-Jan-19 21:33N 29°41' W 091°13'5 4.6
2015-Jan-19 20:33N 29°39' W 091°18'4 4.3
2015-Jan-19 19:33N 29°39' W 091°23'5 3.3
2015-Jan-19 18:11N 29°41' W 091°28'2 3.5
2015-Jan-19 17:32N 29°42' W 091°30'5 3.9
2015-Jan-19 16:11N 29°45' W 091°35'2 3.6
2015-Jan-19 15:34N 29°46' W 091°37'4 3.6
2015-Jan-19 14:33N 29°46' W 091°42'4 4.0
2015-Jan-19 13:29N 29°46' W 091°46'  
Track history (hours):
 
Tides and Currents Weather Stations Pressure Air Temp Water Temp Dewpoint Dewpoint Depression Visibility Wind Speed Wind Dir Waves Ship Positions

Carpathia

Owner: BRUSTOWICZ, THEODORE R, COVINGTON, LA. More information available from US FCC via Universal Licensing System and Coast Guard Vessel Documentation Center.

Last reported at 2015-Jan-22 06:22 UTC. Time now 2015-Jan-26 04:23 UTC.
Position N 29°46' W 091°45'.

Length 23 m; draft 4 m.

Type: Towing. MMSI: 366993420.

Date/timePositionNaut miles runAvg speedWind from/ knotsBaromVisibWave heightAir tempDewpointWater temp
2015-Jan-22 06:22N 29°46' W 091°45'5 4.8
2015-Jan-22 05:24N 29°46' W 091°39'4 4.9
2015-Jan-22 04:33N 29°45' W 091°34'5 5.2
2015-Jan-22 03:33N 29°42' W 091°30'5 5.1
2015-Jan-22 02:33N 29°39' W 091°25'5 5.4
2015-Jan-22 01:34N 29°39' W 091°18'6 5.7
2015-Jan-22 00:33N 29°42' W 091°13'5 5.0
2015-Jan-21 23:33N 29°46' W 091°16'5 6.4
2015-Jan-21 22:50N 29°47' W 091°21'0 6.8
2015-Jan-21 22:46N 29°47' W 091°21'2 7.0
2015-Jan-21 22:33N 29°48' W 091°22'7 6.9
2015-Jan-21 21:30N 29°54' W 091°27'2 0.0
2015-Jan-20 03:11N 29°56' W 091°28'3 4.2
2015-Jan-20 02:27N 29°53' W 091°26'3 3.8
2015-Jan-20 01:33N 29°50' W 091°24'4 4.0
2015-Jan-20 00:33N 29°47' W 091°21'4 3.6
2015-Jan-19 23:34N 29°46' W 091°18'4 3.4
2015-Jan-19 22:29N 29°45' W 091°14'4 4.2
2015-Jan-19 21:33N 29°41' W 091°13'5 4.6
2015-Jan-19 20:33N 29°39' W 091°18'4 4.3
2015-Jan-19 19:33N 29°39' W 091°23'5 3.3
2015-Jan-19 18:11N 29°41' W 091°28'2 3.5
2015-Jan-19 17:32N 29°42' W 091°30'5 3.9
2015-Jan-19 16:11N 29°45' W 091°35'2 3.6
2015-Jan-19 15:34N 29°46' W 091°37'4 3.6
2015-Jan-19 14:33N 29°46' W 091°42'4 4.0
2015-Jan-19 13:29N 29°46' W 091°46'  

Dump ship's entire track history